createdAt,value
2016-07-16T00:00:53.957Z,87.88
2016-07-16T00:01:54.152Z,87.98
2016-07-16T00:02:53.945Z,87.6
2016-07-16T00:03:53.945Z,87.79
2016-07-16T00:04:53.937Z,87.79
2016-07-16T00:05:53.929Z,87.6
2016-07-16T00:06:53.925Z,87.98
2016-07-16T00:07:53.918Z,87.98
2016-07-16T00:08:53.917Z,88.45
2016-07-16T00:09:53.911Z,87.88
2016-07-16T00:10:53.904Z,88.55
2016-07-16T00:11:53.900Z,88.64
2016-07-16T00:12:53.895Z,88.45
2016-07-16T00:13:53.893Z,88.17
2016-07-16T00:14:53.888Z,88.64
2016-07-16T00:15:53.878Z,88.51
2016-07-16T00:16:53.875Z,88.36
2016-07-16T00:17:53.872Z,88.79
2016-07-16T00:18:53.860Z,88.7
2016-07-16T00:19:53.857Z,89.26
2016-07-16T00:20:53.862Z,88.84
2016-07-16T00:21:53.846Z,88.98
2016-07-16T00:22:53.845Z,88.89
2016-07-16T00:23:53.839Z,89.07
2016-07-16T00:24:53.830Z,88.7
2016-07-16T00:25:53.829Z,88.6
2016-07-16T00:26:53.819Z,88.64
2016-07-16T00:27:53.824Z,89.07
2016-07-16T00:28:53.814Z,88.89
2016-07-16T00:29:53.810Z,89.36
2016-07-16T00:30:53.800Z,89.46
2016-07-16T00:31:53.799Z,89.55
2016-07-16T00:32:53.795Z,89.75
2016-07-16T00:33:53.786Z,89.65
2016-07-16T00:34:53.782Z,89.26
2016-07-16T00:35:53.775Z,89.55
2016-07-16T00:36:53.768Z,89.17
2016-07-16T00:37:53.761Z,89.36
2016-07-16T00:38:53.760Z,90.03
2016-07-16T00:39:53.755Z,89.55
2016-07-16T00:40:53.747Z,89.65
2016-07-16T00:41:53.741Z,89.36
2016-07-16T00:42:53.736Z,89.65
2016-07-16T00:43:53.734Z,89.94
2016-07-16T00:44:53.728Z,90.12
2016-07-16T00:45:53.719Z,89.94
2016-07-16T00:46:53.718Z,90.03
2016-07-16T00:47:53.709Z,90.12
2016-07-16T00:48:53.705Z,89.84
2016-07-16T00:49:53.700Z,90.22
2016-07-16T00:50:53.696Z,90.31
2016-07-16T00:51:53.687Z,90.31
2016-07-16T00:52:53.681Z,90.31
2016-07-16T00:53:53.681Z,90.12
2016-07-16T00:54:53.670Z,90.31
2016-07-16T00:55:53.665Z,89.94
2016-07-16T00:56:54.782Z,90.03
2016-07-16T00:57:53.710Z,90.31
2016-07-16T00:58:53.654Z,90.03
2016-07-16T00:59:53.979Z,90.12
2016-07-16T01:00:54.625Z,90.89
2016-07-16T01:01:53.885Z,90.7
2016-07-16T01:02:53.626Z,90.6
2016-07-16T01:03:53.623Z,90.41
2016-07-16T01:04:53.619Z,90.5
2016-07-16T01:05:53.618Z,90.5
2016-07-16T01:06:54.960Z,90.6
2016-07-16T01:07:54.466Z,90.7
2016-07-16T01:09:08.515Z,90.6
2016-07-16T01:09:54.090Z,90.41
2016-07-16T01:10:53.615Z,90.5
2016-07-16T01:11:53.583Z,90.22
2016-07-16T01:12:53.579Z,90.31
2016-07-16T01:15:54.320Z,90.41
2016-07-16T01:16:53.556Z,90.41
2016-07-16T01:17:54.198Z,90.31
2016-07-16T01:18:53.546Z,90.75
2016-07-16T01:19:53.538Z,90.27
2016-07-16T01:20:53.533Z,90.46
2016-07-16T01:21:53.525Z,90.6
2016-07-16T01:22:53.524Z,90.94
2016-07-16T01:23:53.514Z,90.27
2016-07-16T01:24:53.508Z,90.75
2016-07-16T01:25:53.505Z,90.75
2016-07-16T01:26:53.499Z,90.75
2016-07-16T01:27:53.497Z,91.03
2016-07-16T01:28:53.489Z,90.84
2016-07-16T01:29:53.481Z,90.84
2016-07-16T01:30:53.476Z,90.84
2016-07-16T01:31:53.467Z,90.84
2016-07-16T01:32:53.464Z,90.65
2016-07-16T01:33:53.457Z,90.84
2016-07-16T01:34:53.454Z,90.75
2016-07-16T01:35:53.450Z,90.94
2016-07-16T01:36:53.441Z,91.31
2016-07-16T01:37:53.436Z,90.94
2016-07-16T01:38:53.436Z,91.13
2016-07-16T01:39:53.428Z,91.03
2016-07-16T01:40:53.421Z,91.03
2016-07-16T01:41:53.413Z,90.94
2016-07-16T01:42:53.407Z,91.03
2016-07-16T01:43:53.399Z,91.03
2016-07-16T01:44:53.392Z,91.22
2016-07-16T01:45:53.391Z,91.22
2016-07-16T01:46:53.385Z,91.03
2016-07-16T01:47:53.381Z,91.13
2016-07-16T01:48:53.376Z,91.22
2016-07-16T01:49:53.368Z,91.13
2016-07-16T01:50:53.363Z,90.94
2016-07-16T01:51:53.355Z,90.94
2016-07-16T01:52:53.349Z,91.03
2016-07-16T01:53:53.343Z,90.94
2016-07-16T01:54:53.340Z,91.13
2016-07-16T01:55:53.344Z,90.84
2016-07-16T01:56:53.328Z,91.03
2016-07-16T01:57:53.320Z,91.03
2016-07-16T01:58:53.316Z,91.03
2016-07-16T01:59:53.306Z,91.03
2016-07-16T02:00:53.312Z,91.31
2016-07-16T02:01:53.295Z,91.31
2016-07-16T02:02:53.294Z,91.31
2016-07-16T02:03:53.291Z,91.41
2016-07-16T02:04:53.284Z,91.41
2016-07-16T02:05:53.273Z,91.13
2016-07-16T02:06:53.269Z,91.79
2016-07-16T02:07:53.268Z,91.41
2016-07-16T02:08:53.257Z,91.41
2016-07-16T02:09:53.261Z,91.7
2016-07-16T02:10:53.246Z,91.51
2016-07-16T02:11:53.243Z,91.7
2016-07-16T02:12:53.245Z,91.51
2016-07-16T02:13:53.233Z,91.51
2016-07-16T02:14:53.221Z,91.51
2016-07-16T02:15:53.220Z,92.08
2016-07-16T02:16:53.214Z,91.99
2016-07-16T02:17:54.648Z,91.79
2016-07-16T02:18:53.334Z,92.08
2016-07-16T02:19:53.662Z,91.99
2016-07-16T02:20:53.420Z,92.08
2016-07-16T02:21:53.181Z,91.79
2016-07-16T02:22:53.527Z,91.79
2016-07-16T02:23:53.168Z,92.08
2016-07-16T02:24:54.686Z,91.7
2016-07-16T02:25:54.032Z,92.08
2016-07-16T02:26:53.157Z,92.18
2016-07-16T02:27:53.144Z,92.36
2016-07-16T02:28:53.139Z,92.18
2016-07-16T02:29:53.474Z,92.08
2016-07-16T02:30:53.133Z,92.27
2016-07-16T02:32:08.040Z,92.36
2016-07-16T02:32:53.773Z,92.22
2016-07-16T02:33:53.465Z,92.32
2016-07-16T02:34:53.105Z,92.08
2016-07-16T02:36:53.096Z,92.22
2016-07-16T02:37:53.291Z,92.03
2016-07-16T02:38:53.085Z,92.13
2016-07-16T02:39:53.076Z,92.6
2016-07-16T02:40:53.070Z,92.7
2016-07-16T02:41:53.064Z,92.41
2016-07-16T02:42:53.058Z,92.6
2016-07-16T02:43:53.054Z,92.6
2016-07-16T02:44:53.042Z,92.51
2016-07-16T02:45:53.037Z,92.99
2016-07-16T02:46:53.037Z,92.89
2016-07-16T02:47:53.025Z,92.7
2016-07-16T02:48:53.028Z,92.79
2016-07-16T02:49:53.024Z,92.89
2016-07-16T02:50:53.010Z,92.99
2016-07-16T02:51:53.005Z,92.6
2016-07-16T02:52:52.995Z,92.51
2016-07-16T02:53:52.992Z,92.6
2016-07-16T02:54:52.986Z,92.7
2016-07-16T02:55:52.977Z,93.08
2016-07-16T02:56:52.973Z,93.08
2016-07-16T02:57:52.973Z,93.18
2016-07-16T02:58:52.961Z,93.08
2016-07-16T02:59:52.954Z,93.37
2016-07-16T03:00:52.947Z,93.27
2016-07-16T03:01:52.948Z,93.46
2016-07-16T03:02:52.935Z,93.27
2016-07-16T03:03:52.933Z,93.27
2016-07-16T03:04:52.926Z,93.08
2016-07-16T03:05:52.918Z,93.08
2016-07-16T03:06:52.913Z,93.18
2016-07-16T03:07:52.907Z,93.18
2016-07-16T03:08:52.898Z,93.37
2016-07-16T03:09:52.893Z,93.55
2016-07-16T03:10:52.902Z,93.55
2016-07-16T03:11:52.878Z,93.74
2016-07-16T03:12:52.877Z,93.74
2016-07-16T03:13:52.867Z,93.46
2016-07-16T03:14:52.859Z,93.74
2016-07-16T03:15:52.857Z,93.55
2016-07-16T03:16:52.854Z,93.65
2016-07-16T03:17:52.852Z,93.65
2016-07-16T03:18:52.840Z,93.46
2016-07-16T03:19:52.834Z,93.55
2016-07-16T03:20:52.829Z,93.55
2016-07-16T03:21:52.820Z,93.46
2016-07-16T03:22:52.817Z,93.55
2016-07-16T03:23:52.809Z,93.46
2016-07-16T03:24:52.801Z,93.65
2016-07-16T03:25:52.802Z,93.65
2016-07-16T03:26:52.793Z,93.7
2016-07-16T03:27:52.787Z,93.74
2016-07-16T03:28:52.776Z,93.89
2016-07-16T03:29:52.770Z,93.7
2016-07-16T03:30:52.783Z,93.65
2016-07-16T03:31:52.764Z,93.6
2016-07-16T03:32:52.755Z,93.7
2016-07-16T03:33:54.613Z,93.89
2016-07-16T03:34:52.742Z,93.89
2016-07-16T03:35:53.106Z,93.6
2016-07-16T03:36:52.733Z,93.6
2016-07-16T03:37:53.712Z,93.7
2016-07-16T03:38:52.716Z,93.7
2016-07-16T03:39:52.716Z,93.7
2016-07-16T03:40:54.005Z,93.6
2016-07-16T03:41:52.699Z,93.7
2016-07-16T03:42:54.131Z,93.89
2016-07-16T03:43:53.189Z,93.89
2016-07-16T03:44:53.744Z,94.22
2016-07-16T03:45:53.350Z,94.03
2016-07-16T03:46:53.075Z,94.13
2016-07-16T03:47:52.663Z,94.27
2016-07-16T03:48:52.662Z,94.08
2016-07-16T03:49:52.652Z,93.84
2016-07-16T03:51:52.793Z,92.83
2016-07-16T03:53:52.634Z,92.41
2016-07-16T03:55:07.547Z,91.36
2016-07-16T03:55:52.627Z,91.3
2016-07-16T03:56:52.721Z,90.54
2016-07-16T03:57:52.618Z,90.49
2016-07-16T03:58:52.615Z,89.92
2016-07-16T03:59:52.609Z,88.72
2016-07-16T04:00:52.606Z,88.15
2016-07-16T04:01:52.609Z,87.52
2016-07-16T04:02:52.603Z,87.23
2016-07-16T04:03:52.604Z,86.7
2016-07-16T04:04:52.602Z,85.84
2016-07-16T04:05:52.601Z,85.6
2016-07-16T04:06:52.596Z,84.64
2016-07-16T04:07:52.591Z,83.92
2016-07-16T04:08:52.593Z,83.38
2016-07-16T04:09:52.587Z,82.04
2016-07-16T04:10:52.587Z,81.22
2016-07-16T04:11:52.589Z,80.97
2016-07-16T04:12:52.589Z,80.2
2016-07-16T04:13:52.589Z,79.28
2016-07-16T04:14:52.582Z,78.52
2016-07-16T04:15:52.590Z,77.01
2016-07-16T04:16:52.584Z,76.54
2016-07-16T04:17:52.582Z,75.71
2016-07-16T04:18:52.586Z,75.65
2016-07-16T04:19:52.585Z,74.69
2016-07-16T04:20:52.590Z,73.86
2016-07-16T04:21:52.594Z,73.9
2016-07-16T04:22:52.589Z,72.65
2016-07-16T04:23:52.605Z,72.11
2016-07-16T04:24:52.599Z,71.72
2016-07-16T04:25:52.598Z,70.7
2016-07-16T04:26:52.604Z,70.15
2016-07-16T04:27:52.603Z,69.09
2016-07-16T04:28:52.607Z,68.93
2016-07-16T04:29:52.608Z,68.01
2016-07-16T04:30:52.616Z,67.33
2016-07-16T04:31:52.618Z,66.3
2016-07-16T04:32:52.619Z,65.53
2016-07-16T04:33:52.630Z,64.79
2016-07-16T04:34:52.631Z,64.43
2016-07-16T04:35:53.328Z,63.56
2016-07-16T04:36:52.644Z,62.63
2016-07-16T04:37:52.646Z,62.18
2016-07-16T04:38:52.648Z,61.63
2016-07-16T04:39:52.655Z,60.17
2016-07-16T04:40:52.662Z,59.91
2016-07-16T04:41:52.666Z,59.36
2016-07-16T04:42:52.674Z,58.72
2016-07-16T04:43:52.681Z,58.04
2016-07-16T04:44:52.688Z,56.71
2016-07-16T04:45:52.695Z,56.45
2016-07-16T04:46:52.700Z,55.99
2016-07-16T04:47:52.712Z,55.24
2016-07-16T04:48:52.722Z,54.75
2016-07-16T04:49:52.727Z,53.52
2016-07-16T04:50:52.737Z,52.74
2016-07-16T04:51:54.263Z,52.55
2016-07-16T04:53:53.205Z,51.21
2016-07-16T04:54:53.608Z,50.43
2016-07-16T04:55:52.796Z,50.53
2016-07-16T04:56:52.793Z,49.87
2016-07-16T04:57:52.795Z,49.68
2016-07-16T04:58:52.803Z,49.02
2016-07-16T05:01:53.834Z,46.64
2016-07-16T05:02:53.810Z,45.68
2016-07-16T05:03:54.069Z,45
2016-07-16T05:05:52.869Z,43.85
2016-07-16T05:06:52.884Z,43.85
2016-07-16T05:07:53.006Z,42.41
2016-07-16T05:09:07.822Z,42.71
2016-07-16T05:09:53.360Z,42.2
2016-07-16T05:10:52.918Z,42.22
2016-07-16T05:11:53.281Z,42.12
2016-07-16T05:12:53.590Z,42.22
2016-07-16T05:13:53.054Z,41.63
2016-07-16T05:14:52.960Z,40.66
2016-07-16T05:15:52.978Z,40.86
2016-07-16T05:17:53.196Z,40.66
2016-07-16T05:18:53.004Z,40.08
2016-07-16T05:19:53.013Z,39.39
2016-07-16T05:20:53.026Z,38.4
2016-07-16T05:21:53.035Z,38.4
2016-07-16T05:22:53.046Z,38.3
2016-07-16T05:23:53.053Z,38.48
2016-07-16T05:24:53.065Z,38.57
2016-07-16T05:25:53.076Z,38.28
2016-07-16T05:26:53.085Z,38.65
2016-07-16T05:27:53.094Z,38.56
2016-07-16T05:28:53.107Z,38.17
2016-07-16T05:29:53.111Z,38.44
2016-07-16T05:30:53.121Z,38.46
2016-07-16T05:31:53.135Z,38.17
2016-07-16T05:32:53.142Z,38.26
2016-07-16T05:33:53.150Z,37.77
2016-07-16T05:34:53.163Z,37.48
2016-07-16T05:35:53.170Z,37.5
2016-07-16T05:36:53.182Z,37.41
2016-07-16T05:37:53.193Z,37.23
2016-07-16T05:38:53.204Z,36.84
2016-07-16T05:39:53.212Z,36.25
2016-07-16T05:40:53.226Z,36.27
2016-07-16T05:41:53.235Z,35.8
2016-07-16T05:42:53.256Z,35.31
2016-07-16T05:43:53.256Z,35.22
2016-07-16T05:44:53.267Z,34.94
2016-07-16T05:45:53.280Z,35.04
2016-07-16T05:46:53.292Z,34.55
2016-07-16T05:47:53.295Z,33.69
2016-07-16T05:50:53.332Z,33.58
2016-07-16T05:51:53.344Z,33.56
2016-07-16T05:52:53.353Z,33.67
2016-07-16T05:53:53.363Z,33.48
2016-07-16T05:54:53.378Z,33.01
2016-07-16T05:55:53.392Z,32.92
2016-07-16T05:56:53.401Z,32.34
2016-07-16T05:57:53.416Z,32.16
2016-07-16T05:58:53.421Z,31.77
2016-07-16T06:00:53.444Z,31.6
2016-07-16T06:01:53.461Z,31.41
2016-07-16T06:02:53.468Z,30.72
2016-07-16T06:03:53.484Z,30.05
2016-07-16T06:04:53.500Z,30.55
2016-07-16T06:05:53.509Z,29.97
2016-07-16T06:06:53.522Z,29.68
2016-07-16T06:07:53.532Z,29.77
2016-07-16T06:08:53.548Z,29.49
2016-07-16T06:09:53.561Z,29
2016-07-16T06:10:53.573Z,28.61
2016-07-16T06:11:53.586Z,28.43
2016-07-16T06:12:53.597Z,28.25
2016-07-16T06:13:53.611Z,27.95
2016-07-16T06:14:53.623Z,27.85
2016-07-16T06:15:53.645Z,27.57
2016-07-16T06:16:53.804Z,26.89
2016-07-16T06:17:53.667Z,26.98
2016-07-16T06:18:54.484Z,26.69
2016-07-16T06:20:54.723Z,26.9
2016-07-16T06:21:53.723Z,26.7
2016-07-16T06:22:53.743Z,26.21
2016-07-16T06:23:53.757Z,25.73
2016-07-16T06:24:53.971Z,26.03
2016-07-16T06:25:54.206Z,25.24
2016-07-16T06:27:53.815Z,25.52
2016-07-16T06:28:54.131Z,25.82
2016-07-16T06:29:54.046Z,26.11
2016-07-16T06:30:53.870Z,26.11
2016-07-16T06:31:53.875Z,25.92
2016-07-16T06:32:53.940Z,25.52
2016-07-16T06:33:53.905Z,25.43
2016-07-16T06:34:53.926Z,25.13
2016-07-16T06:35:53.936Z,25.13
2016-07-16T06:36:53.951Z,25.23
2016-07-16T06:37:53.968Z,25.23
2016-07-16T06:38:53.981Z,25.15
2016-07-16T06:39:53.998Z,24.95
2016-07-16T06:40:54.019Z,24.95
2016-07-16T06:41:54.032Z,24.17
2016-07-16T06:42:54.047Z,24.55
2016-07-16T06:43:54.057Z,24.85
2016-07-16T06:44:54.079Z,24.55
2016-07-16T06:45:54.092Z,24.55
2016-07-16T06:46:54.113Z,24.16
2016-07-16T06:47:54.129Z,24.27
2016-07-16T06:48:54.143Z,24.65
2016-07-16T06:49:54.159Z,24.36
2016-07-16T06:50:54.178Z,24.25
2016-07-16T06:51:54.193Z,24.93
2016-07-16T06:52:54.211Z,24.54
2016-07-16T06:53:54.224Z,24.75
2016-07-16T06:54:54.240Z,24.46
2016-07-16T06:55:54.258Z,24.37
2016-07-16T06:56:54.273Z,24.07
2016-07-16T06:57:54.293Z,24.18
2016-07-16T06:58:54.315Z,23.11
2016-07-16T06:59:54.327Z,23.69
2016-07-16T07:00:54.342Z,23.5
2016-07-16T07:01:54.359Z,23.79
2016-07-16T07:02:54.378Z,23.61
2016-07-16T07:03:54.395Z,23.31
2016-07-16T07:04:54.410Z,23.42
2016-07-16T07:05:54.429Z,22.93
2016-07-16T07:06:54.445Z,22.64
2016-07-16T07:07:54.475Z,22.35
2016-07-16T07:08:54.484Z,22.25
2016-07-16T07:09:54.503Z,22.15
2016-07-16T07:10:54.519Z,21.07
2016-07-16T07:11:54.537Z,20.76
2016-07-16T07:12:54.557Z,21.06
2016-07-16T07:13:54.574Z,21.15
2016-07-16T07:14:54.596Z,21.45
2016-07-16T07:15:54.609Z,21.75
2016-07-16T07:16:54.633Z,21.07
2016-07-16T07:17:54.652Z,21.18
2016-07-16T07:18:54.675Z,21.29
2016-07-16T07:19:54.699Z,21.1
2016-07-16T07:20:54.710Z,19.34
2016-07-16T07:21:54.729Z,19.23
2016-07-16T07:22:54.751Z,19.23
2016-07-16T07:23:54.770Z,19.42
2016-07-16T07:24:54.786Z,19.32
2016-07-16T07:25:54.809Z,18.73
2016-07-16T07:26:54.829Z,18.73
2016-07-16T07:27:54.848Z,19.32
2016-07-16T07:28:55.576Z,19.23
2016-07-16T07:29:56.405Z,18.93
2016-07-16T07:30:54.907Z,18.94
2016-07-16T07:31:54.925Z,19.13
2016-07-16T07:32:54.944Z,18.65
2016-07-16T07:33:55.574Z,17.96
2016-07-16T07:34:55.068Z,16.97
2016-07-16T07:35:56.105Z,17.56
2016-07-16T07:36:55.029Z,17.45
2016-07-16T07:37:56.520Z,18.24
2016-07-16T07:38:55.063Z,18.82
2016-07-16T07:39:55.936Z,17.94
2016-07-16T07:40:55.837Z,17.75
2016-07-16T07:41:55.130Z,17.35
2016-07-16T07:42:55.775Z,16.87
2016-07-16T07:43:55.689Z,16.96
2016-07-16T07:44:55.489Z,17.05
2016-07-16T07:45:56.311Z,17.74
2016-07-16T07:46:55.280Z,17.45
2016-07-16T07:48:55.722Z,15.69
2016-07-16T07:49:55.287Z,15.67
2016-07-16T07:50:55.311Z,15.97
2016-07-16T07:51:55.327Z,16.06
2016-07-16T07:52:55.349Z,16.17
2016-07-16T07:53:55.367Z,16.26
2016-07-16T07:54:55.391Z,16.47
2016-07-16T07:55:55.407Z,16.66
2016-07-16T07:56:55.430Z,15.98
2016-07-16T07:57:55.454Z,15.99
2016-07-16T07:58:55.475Z,16.28
2016-07-16T07:59:55.498Z,16.38
2016-07-16T08:00:55.509Z,16.09
2016-07-16T08:01:55.529Z,15
2016-07-16T08:02:55.552Z,15.58
2016-07-16T08:03:55.571Z,15.97
2016-07-16T08:05:55.608Z,16.24
2016-07-16T08:06:55.627Z,17.02
2016-07-16T08:07:55.645Z,17.5
2016-07-16T08:09:55.689Z,18.29
2016-07-16T08:10:57.224Z,18.88
2016-07-16T08:12:55.741Z,18.6
2016-07-16T08:13:55.756Z,18.61
2016-07-16T08:14:55.778Z,18.9
2016-07-16T08:15:55.795Z,19.3
2016-07-16T08:16:55.815Z,19.4
2016-07-16T08:17:55.834Z,18.92
2016-07-16T08:18:55.854Z,18.34
2016-07-16T08:19:55.873Z,18.54
2016-07-16T08:20:55.895Z,17.85
2016-07-16T08:21:55.914Z,18.05
2016-07-16T08:22:55.929Z,18.46
2016-07-16T08:23:55.955Z,18.06
2016-07-16T08:24:55.972Z,17.57
2016-07-16T08:25:55.991Z,17.87
2016-07-16T08:26:56.011Z,17.68
2016-07-16T08:27:56.038Z,17.09
2016-07-16T08:28:56.056Z,16.69
2016-07-16T08:29:56.070Z,15.7
2016-07-16T08:30:56.093Z,15.3
2016-07-16T08:31:56.115Z,15.88
2016-07-16T08:32:56.130Z,16.55
2016-07-16T08:33:56.156Z,17.13
2016-07-16T08:34:56.178Z,17.62
2016-07-16T08:35:56.195Z,17.23
2016-07-16T08:36:56.209Z,17.43
2016-07-16T08:37:56.237Z,17.23
2016-07-16T08:38:56.251Z,17.23
2016-07-16T08:39:56.269Z,17.71
2016-07-16T08:40:56.285Z,17.42
2016-07-16T08:41:56.311Z,17.5
2016-07-16T08:42:56.324Z,17.99
2016-07-16T08:43:56.340Z,17.98
2016-07-16T08:44:56.361Z,18.55
2016-07-16T08:45:56.379Z,19.23
2016-07-16T08:46:57.756Z,19.62
2016-07-16T08:48:56.574Z,19.9
2016-07-16T08:49:57.052Z,20.19
2016-07-16T08:50:56.458Z,20.28
2016-07-16T08:51:56.472Z,20.66
2016-07-16T08:52:56.494Z,20.47
2016-07-16T08:53:56.500Z,20.75
2016-07-16T08:54:56.667Z,21.13
2016-07-16T08:57:56.881Z,22.37
2016-07-16T08:58:57.959Z,22.85
2016-07-16T08:59:56.581Z,22.55
2016-07-16T09:00:56.595Z,23.51
2016-07-16T09:01:56.607Z,24.1
2016-07-16T09:02:56.970Z,24.18
2016-07-16T09:03:57.381Z,24.76
2016-07-16T09:04:56.642Z,24.56
2016-07-16T09:05:56.652Z,24.45
2016-07-16T09:06:56.813Z,24.44
2016-07-16T09:07:56.979Z,24.82
2016-07-16T09:08:56.690Z,25.29
2016-07-16T09:09:56.697Z,25.57
2016-07-16T09:10:56.707Z,26.43
2016-07-16T09:11:56.716Z,26.72
2016-07-16T09:12:56.725Z,26.61
2016-07-16T09:13:56.737Z,27
2016-07-16T09:14:56.746Z,27.19
2016-07-16T09:15:56.757Z,27.58
2016-07-16T09:16:56.769Z,27.68
2016-07-16T09:17:56.774Z,27.87
2016-07-16T09:18:56.784Z,28.07
2016-07-16T09:19:56.793Z,27.87
2016-07-16T09:20:56.799Z,28.17
2016-07-16T09:21:56.811Z,28.36
2016-07-16T09:22:56.820Z,28.44
2016-07-16T09:23:56.830Z,28.54
2016-07-16T09:24:56.831Z,29.12
2016-07-16T09:25:56.842Z,29.22
2016-07-16T09:26:56.848Z,29.3
2016-07-16T09:27:56.856Z,29.21
2016-07-16T09:28:56.870Z,30.37
2016-07-16T09:29:58.396Z,29.87
2016-07-16T09:30:56.886Z,30.16
2016-07-16T09:31:56.894Z,30.26
2016-07-16T09:32:56.901Z,30.16
2016-07-16T09:33:56.907Z,30.15
2016-07-16T09:34:56.911Z,30.24
2016-07-16T09:35:56.919Z,30.05
2016-07-16T09:36:56.927Z,30.42
2016-07-16T09:37:56.934Z,29.84
2016-07-16T09:38:56.941Z,29.94
2016-07-16T09:39:56.951Z,30.52
2016-07-16T09:40:56.958Z,30.04
2016-07-16T09:41:56.959Z,30.04
2016-07-16T09:42:56.971Z,30.52
2016-07-16T09:43:56.973Z,30.71
2016-07-16T09:44:56.979Z,30.62
2016-07-16T09:45:56.986Z,30.42
2016-07-16T09:46:56.995Z,30.62
2016-07-16T09:47:57.002Z,30.82
2016-07-16T09:48:57.004Z,31.02
2016-07-16T09:49:57.011Z,30.73
2016-07-16T09:50:57.020Z,31.02
2016-07-16T09:51:57.035Z,30.63
2016-07-16T09:52:57.031Z,30.34
2016-07-16T09:53:57.038Z,30.44
2016-07-16T09:54:57.044Z,30.92
2016-07-16T09:55:57.054Z,30.63
2016-07-16T09:56:57.057Z,30.92
2016-07-16T09:57:57.070Z,31.02
2016-07-16T09:58:57.076Z,30.91
2016-07-16T09:59:57.079Z,31.02
2016-07-16T10:00:57.084Z,31.21
2016-07-16T10:01:57.095Z,31.41
2016-07-16T10:02:57.101Z,31.1
2016-07-16T10:03:57.108Z,31.1
2016-07-16T10:04:57.114Z,30.91
2016-07-16T10:05:57.497Z,31.49
2016-07-16T10:06:57.126Z,31.39
2016-07-16T10:07:58.539Z,31.59
2016-07-16T10:08:57.143Z,31.59
2016-07-16T10:09:57.142Z,31.2
2016-07-16T10:10:57.150Z,31.49
2016-07-16T10:11:57.160Z,31.49
2016-07-16T10:13:58.676Z,31.97
2016-07-16T10:14:57.524Z,32.15
2016-07-16T10:15:57.270Z,32.34
2016-07-16T10:16:57.741Z,32.64
2016-07-16T10:17:58.146Z,33.02
2016-07-16T10:18:57.201Z,32.71
2016-07-16T10:19:57.205Z,32.62
2016-07-16T10:20:57.372Z,32.91
2016-07-16T10:22:12.138Z,32.91
2016-07-16T10:22:58.020Z,32.91
2016-07-16T10:23:57.534Z,32.81
2016-07-16T10:24:57.235Z,33.29
2016-07-16T10:25:57.235Z,33.47
2016-07-16T10:26:57.259Z,32.89
2016-07-16T10:27:57.263Z,33.09
2016-07-16T10:28:57.405Z,33.28
2016-07-16T10:29:57.275Z,33.37
2016-07-16T10:30:57.266Z,33.47
2016-07-16T10:31:57.278Z,33.18
2016-07-16T10:32:57.279Z,33.28
2016-07-16T10:33:57.283Z,33.95
2016-07-16T10:34:57.294Z,33.76
2016-07-16T10:35:57.307Z,34.25
2016-07-16T10:36:57.296Z,34.15
2016-07-16T10:37:57.304Z,34.15
2016-07-16T10:38:57.311Z,34.34
2016-07-16T10:39:57.315Z,34.25
2016-07-16T10:40:57.320Z,34.13
2016-07-16T10:41:57.325Z,34.15
2016-07-16T10:42:57.340Z,34.04
2016-07-16T10:43:57.332Z,33.94
2016-07-16T10:44:57.344Z,34.13
2016-07-16T10:45:57.343Z,34.13
2016-07-16T10:46:57.348Z,33.94
2016-07-16T10:47:57.351Z,33.94
2016-07-16T10:48:57.354Z,33.94
2016-07-16T10:49:57.364Z,34.23
2016-07-16T10:50:57.364Z,34.33
2016-07-16T10:51:57.376Z,34.52
2016-07-16T10:52:57.374Z,34.23
2016-07-16T10:53:57.379Z,34.23
2016-07-16T10:54:57.381Z,33.75
2016-07-16T10:55:57.390Z,34.04
2016-07-16T10:56:57.396Z,34.13
2016-07-16T10:57:57.397Z,34.25
2016-07-16T10:58:57.406Z,34.15
2016-07-16T10:59:57.410Z,33.95
2016-07-16T11:00:57.411Z,33.47
2016-07-16T11:01:57.414Z,33.29
2016-07-16T11:02:57.420Z,32.91
2016-07-16T11:03:57.424Z,33.2
2016-07-16T11:04:57.429Z,32.91
2016-07-16T11:05:57.436Z,33.22
2016-07-16T11:06:57.443Z,33.12
2016-07-16T11:07:57.442Z,33.31
2016-07-16T11:08:57.450Z,33.12
2016-07-16T11:09:57.460Z,32.92
2016-07-16T11:10:57.459Z,32.54
2016-07-16T11:11:57.466Z,32.46
2016-07-16T11:12:57.473Z,32.07
2016-07-16T11:13:57.472Z,32.26
2016-07-16T11:14:57.480Z,32.46
2016-07-16T11:15:57.495Z,32.26
2016-07-16T11:16:57.495Z,32.56
2016-07-16T11:17:57.500Z,32.56
2016-07-16T11:18:57.506Z,32.18
2016-07-16T11:19:57.511Z,31.79
2016-07-16T11:20:57.514Z,31.99
2016-07-16T11:21:57.519Z,31.6
2016-07-16T11:22:57.526Z,31.5
2016-07-16T11:23:58.939Z,31.6
2016-07-16T11:24:57.661Z,31.49
2016-07-16T11:25:57.541Z,31.87
2016-07-16T11:26:57.546Z,31.87
2016-07-16T11:27:57.550Z,31.59
2016-07-16T11:28:57.558Z,31.29
2016-07-16T11:29:57.563Z,31.68
2016-07-16T11:30:57.923Z,31.67
2016-07-16T11:31:57.577Z,31.76
2016-07-16T11:32:57.678Z,31.28
2016-07-16T11:33:57.818Z,31.47
2016-07-16T11:34:59.085Z,31.47
2016-07-16T11:35:58.598Z,31.76
2016-07-16T11:36:57.611Z,31.76
2016-07-16T11:37:57.862Z,32.06
2016-07-16T11:38:57.612Z,32.34
2016-07-16T11:39:57.766Z,31.76
2016-07-16T11:40:58.328Z,31.86
2016-07-16T11:42:13.248Z,31.67
2016-07-16T11:42:57.634Z,31.57
2016-07-16T11:43:57.635Z,31.67
2016-07-16T11:44:57.642Z,31.65
2016-07-16T11:45:57.649Z,31.67
2016-07-16T11:46:57.653Z,32.33
2016-07-16T11:47:57.661Z,32.14
2016-07-16T11:48:57.662Z,32.14
2016-07-16T11:49:57.665Z,32.04
2016-07-16T11:50:57.675Z,32.04
2016-07-16T11:51:57.675Z,31.65
2016-07-16T11:52:57.683Z,31.65
2016-07-16T11:53:57.685Z,31.65
2016-07-16T11:54:57.688Z,31.65
2016-07-16T11:55:57.698Z,32.14
2016-07-16T11:56:57.698Z,32.14
2016-07-16T11:57:57.709Z,32.33
2016-07-16T11:58:57.710Z,32.23
2016-07-16T11:59:57.713Z,32.06
2016-07-16T12:00:57.717Z,32.06
2016-07-16T12:01:57.727Z,31.47
2016-07-16T12:02:57.728Z,31.28
2016-07-16T12:03:57.733Z,31.67
2016-07-16T12:04:57.736Z,31.57
2016-07-16T12:05:57.743Z,31.76
2016-07-16T12:06:57.746Z,31.57
2016-07-16T12:07:57.758Z,31.28
2016-07-16T12:08:57.756Z,31.28
2016-07-16T12:09:57.760Z,31.96
2016-07-16T12:10:57.774Z,32.17
2016-07-16T12:11:57.772Z,31.78
2016-07-16T12:12:57.775Z,31.49
2016-07-16T12:13:57.786Z,30.81
2016-07-16T12:14:57.793Z,30.91
2016-07-16T12:15:57.792Z,30.62
2016-07-16T12:16:57.799Z,30.42
2016-07-16T12:17:57.803Z,30.52
2016-07-16T12:18:57.813Z,30.52
2016-07-16T12:19:57.814Z,30.71
2016-07-16T12:20:57.822Z,30.81
2016-07-16T12:21:57.828Z,31.39
2016-07-16T12:22:57.830Z,31.78
2016-07-16T12:23:57.919Z,32.17
2016-07-16T12:24:57.839Z,32.17
2016-07-16T12:25:57.843Z,32.36
2016-07-16T12:26:57.849Z,31.97
2016-07-16T12:27:57.858Z,32.06
2016-07-16T12:28:57.862Z,32.06
2016-07-16T12:29:57.866Z,32.24
2016-07-16T12:30:57.870Z,32.06
2016-07-16T12:31:57.878Z,31.37
2016-07-16T12:32:57.881Z,32.44
2016-07-16T12:33:57.883Z,32.15
2016-07-16T12:34:57.889Z,32.15
2016-07-16T12:35:57.898Z,32.44
2016-07-16T12:36:57.901Z,32.34
2016-07-16T12:37:57.905Z,32.34
2016-07-16T12:38:57.912Z,31.76
2016-07-16T12:39:57.917Z,31.37
2016-07-16T12:40:57.923Z,31.67
2016-07-16T12:41:57.923Z,31.57
2016-07-16T12:43:15.567Z,31.18
2016-07-16T12:43:57.935Z,30.99
2016-07-16T12:44:58.061Z,31.37
2016-07-16T12:45:57.945Z,31.09
2016-07-16T12:46:58.480Z,30.79
2016-07-16T12:47:57.953Z,30.79
2016-07-16T12:48:59.064Z,30.89
2016-07-16T12:49:58.762Z,30.79
2016-07-16T12:50:58.932Z,30.99
2016-07-16T12:51:57.976Z,31.16
2016-07-16T12:52:57.979Z,30.79
2016-07-16T12:53:58.531Z,29.63
2016-07-16T12:54:57.991Z,29.43
2016-07-16T12:55:58.485Z,29.43
2016-07-16T12:56:57.995Z,29.33
2016-07-16T12:57:58.003Z,29.81
2016-07-16T12:58:58.252Z,29.9
2016-07-16T12:59:58.010Z,30.28
2016-07-16T13:00:58.014Z,29.9
2016-07-16T13:01:58.020Z,30.57
2016-07-16T13:02:58.023Z,30.38
2016-07-16T13:03:58.028Z,30.49
2016-07-16T13:04:58.029Z,30.78
2016-07-16T13:05:58.038Z,30.98
2016-07-16T13:06:58.041Z,30.88
2016-07-16T13:07:58.048Z,31.07
2016-07-16T13:08:58.051Z,30.49
2016-07-16T13:09:58.055Z,30.29
2016-07-16T13:10:58.058Z,30.29
2016-07-16T13:11:58.060Z,30.57
2016-07-16T13:12:58.068Z,31.07
2016-07-16T13:13:58.074Z,30.98
2016-07-16T13:14:58.074Z,31.36
2016-07-16T13:15:58.083Z,30.98
2016-07-16T13:16:58.084Z,31.36
2016-07-16T13:17:58.093Z,31.56
2016-07-16T13:18:58.092Z,31.65